Arthur, Nevada
Current Conditions -  °F | °C
As of 9:55 AM on Thursday 30 Oct 2014 (Local Time) from KENV Reporting Station
Clear Clear  
Wind Chill: 46°   Ceiling: Unl
Heat Index: 48°   Visibility: 10mi
Dew Point: 28°   Wind: 5mph
Humidity: 46%   Direction: 110°ESE
Pressure: 30.28"   Gusts: NA
Location:  41.0114°N, 114.57°W
Report Text: KENV 301655Z AUTO 11004KT 10SM CLR 09/M02 A3028 RMK AO1
Loading
Personal Weather Stations






























Interactive Weather Map New forecast layout! Learn more

10-Day Weather Forecast

Advertisements
Track Severe Weather on mobile